createdAt,value
2023-02-15T00:01:44.165Z,3.67
2023-02-15T00:04:13.339Z,3.64
2023-02-15T00:06:39.727Z,3.65
2023-02-15T00:09:05.982Z,3.62
2023-02-15T00:11:41.562Z,3.63
2023-02-15T00:14:09.019Z,3.59
2023-02-15T00:16:35.643Z,3.57
2023-02-15T00:19:03.112Z,3.57
2023-02-15T00:21:33.257Z,3.54
2023-02-15T00:24:00.662Z,3.51
2023-02-15T00:26:27.327Z,3.47
2023-02-15T00:28:53.839Z,3.43
2023-02-15T00:31:20.186Z,3.42
2023-02-15T00:33:47.013Z,3.34
2023-02-15T00:36:13.857Z,3.33
2023-02-15T00:38:40.484Z,3.25
2023-02-15T00:41:08.127Z,3.21
2023-02-15T00:43:35.022Z,3.20
2023-02-15T00:46:02.383Z,3.15
2023-02-15T00:48:29.216Z,3.19
2023-02-15T00:50:57.249Z,3.21
2023-02-15T00:53:23.616Z,3.15
2023-02-15T00:55:50.101Z,3.20
2023-02-15T00:58:16.777Z,3.19
2023-02-15T01:00:44.097Z,3.17
2023-02-15T01:03:10.876Z,3.16
2023-02-15T01:05:37.372Z,3.15
2023-02-15T01:08:03.803Z,3.19
2023-02-15T01:10:30.538Z,3.17
2023-02-15T01:12:57.338Z,3.17
2023-02-15T01:15:23.819Z,3.16
2023-02-15T01:17:53.587Z,3.15
2023-02-15T01:20:20.956Z,3.14
2023-02-15T01:22:47.712Z,3.10
2023-02-15T01:25:14.079Z,3.07
2023-02-15T01:27:40.326Z,3.04
2023-02-15T01:30:07.002Z,3.03
2023-02-15T01:32:33.297Z,3.01
2023-02-15T01:34:59.561Z,3.02
2023-02-15T01:37:25.788Z,2.98
2023-02-15T01:39:52.236Z,2.90
2023-02-15T01:42:28.409Z,2.91
2023-02-15T01:44:57.249Z,2.88
2023-02-15T01:47:43.872Z,2.89
2023-02-15T01:50:13.316Z,2.86
2023-02-15T01:52:41.647Z,2.85
2023-02-15T01:55:09.304Z,2.84
2023-02-15T01:57:35.829Z,2.82
2023-02-15T02:00:05.149Z,2.81
2023-02-15T02:02:31.942Z,2.81
2023-02-15T02:05:00.196Z,2.84
2023-02-15T02:07:30.516Z,2.83
2023-02-15T02:09:56.814Z,2.79
2023-02-15T02:12:24.199Z,2.80
2023-02-15T02:14:52.027Z,2.78
2023-02-15T02:17:51.001Z,2.79
2023-02-15T02:20:29.628Z,2.79
2023-02-15T02:23:07.044Z,2.80
2023-02-15T02:25:51.815Z,2.68
2023-02-15T02:28:27.631Z,2.71
2023-02-15T02:31:00.131Z,2.69
2023-02-15T02:33:35.923Z,2.68
2023-02-15T02:36:08.450Z,2.66
2023-02-15T02:38:37.724Z,2.61
2023-02-15T02:41:04.895Z,2.57
2023-02-15T02:43:50.240Z,2.53
2023-02-15T02:46:21.376Z,2.49
2023-02-15T02:48:49.181Z,2.47
2023-02-15T02:51:21.168Z,2.42
2023-02-15T02:53:48.251Z,2.44
2023-02-15T02:56:23.349Z,2.38
2023-02-15T02:58:52.555Z,2.37
2023-02-15T03:01:22.503Z,2.34
2023-02-15T03:03:51.324Z,2.31
2023-02-15T03:06:20.312Z,2.30
2023-02-15T03:08:49.363Z,2.27
2023-02-15T03:11:15.763Z,2.28
2023-02-15T03:13:42.525Z,2.27
2023-02-15T03:16:28.382Z,2.24
2023-02-15T03:18:57.923Z,2.22
2023-02-15T03:21:36.283Z,2.23
2023-02-15T03:24:16.260Z,2.20
2023-02-15T03:26:44.228Z,2.18
2023-02-15T03:29:11.334Z,2.16
2023-02-15T03:31:40.490Z,2.13
2023-02-15T03:34:10.535Z,2.13
2023-02-15T03:36:46.041Z,2.11
2023-02-15T03:39:16.645Z,2.08
2023-02-15T03:41:47.201Z,2.09
2023-02-15T03:44:24.390Z,2.08
2023-02-15T03:47:12.440Z,2.07
2023-02-15T03:49:41.886Z,2.04
2023-02-15T03:52:09.900Z,2.03
2023-02-15T03:54:47.404Z,2.00
2023-02-15T03:57:38.860Z,2.02
2023-02-15T04:00:25.678Z,1.93
2023-02-15T04:03:13.230Z,1.88
2023-02-15T04:05:39.588Z,1.85
2023-02-15T04:08:05.908Z,1.83
2023-02-15T04:10:51.081Z,1.82
2023-02-15T04:13:17.436Z,1.80
2023-02-15T04:16:02.665Z,1.76
2023-02-15T04:18:48.224Z,1.66
2023-02-15T04:21:33.141Z,1.66
2023-02-15T04:24:17.787Z,1.64
2023-02-15T04:26:44.262Z,1.58
2023-02-15T04:29:10.530Z,1.58
2023-02-15T04:31:36.928Z,1.61
2023-02-15T04:34:03.328Z,1.60
2023-02-15T04:36:29.645Z,1.57
2023-02-15T04:38:55.919Z,1.61
2023-02-15T04:41:22.230Z,1.62
2023-02-15T04:43:48.568Z,1.64
2023-02-15T04:46:14.879Z,1.62
2023-02-15T04:48:41.204Z,1.60
2023-02-15T04:51:08.103Z,1.61
2023-02-15T04:53:34.736Z,1.61
2023-02-15T04:56:01.361Z,1.60
2023-02-15T04:58:27.785Z,1.60
2023-02-15T05:00:57.502Z,1.58
2023-02-15T05:03:24.208Z,1.58
2023-02-15T05:05:50.766Z,1.57
2023-02-15T05:08:17.393Z,1.56
2023-02-15T05:10:43.675Z,1.55
2023-02-15T05:13:10.094Z,1.56
2023-02-15T05:15:36.475Z,1.54
2023-02-15T05:18:02.918Z,1.51
2023-02-15T05:20:29.132Z,1.50
2023-02-15T05:22:55.574Z,1.52
2023-02-15T05:25:40.516Z,1.49
2023-02-15T05:28:20.746Z,1.44
2023-02-15T05:30:48.615Z,1.41
2023-02-15T05:33:15.070Z,1.36
2023-02-15T05:35:41.699Z,1.37
2023-02-15T05:38:08.020Z,1.37
2023-02-15T05:40:34.444Z,1.37
2023-02-15T05:43:00.999Z,1.36
2023-02-15T05:45:27.393Z,1.35
2023-02-15T05:47:54.124Z,1.34
2023-02-15T05:50:20.375Z,1.35
2023-02-15T05:52:46.707Z,1.36
2023-02-15T05:55:13.312Z,1.38
2023-02-15T05:57:39.611Z,1.36
2023-02-15T06:00:06.655Z,1.33
2023-02-15T06:02:36.378Z,1.33
2023-02-15T06:05:03.326Z,1.31
2023-02-15T06:07:29.675Z,1.30
2023-02-15T06:09:55.962Z,1.28
2023-02-15T06:12:22.365Z,1.26
2023-02-15T06:14:48.675Z,1.23
2023-02-15T06:17:15.120Z,1.24
2023-02-15T06:19:41.397Z,1.19
2023-02-15T06:22:07.664Z,1.19
2023-02-15T06:24:33.934Z,1.15
2023-02-15T06:27:00.180Z,1.11
2023-02-15T06:29:26.452Z,1.09
2023-02-15T06:31:52.907Z,1.13
2023-02-15T06:34:19.337Z,1.10
2023-02-15T06:36:45.621Z,1.12
2023-02-15T06:39:11.863Z,1.14
2023-02-15T06:41:38.143Z,1.12
2023-02-15T06:44:04.846Z,1.12
2023-02-15T06:46:31.216Z,1.12
2023-02-15T06:48:57.602Z,1.10
2023-02-15T06:51:23.977Z,1.10
2023-02-15T06:53:50.298Z,1.07
2023-02-15T06:56:16.620Z,1.05
2023-02-15T06:58:43.393Z,1.01
2023-02-15T07:01:10.213Z,1.01
2023-02-15T07:03:36.761Z,0.99
2023-02-15T07:06:04.531Z,0.98
2023-02-15T07:08:30.976Z,1.02
2023-02-15T07:11:20.415Z,1.05
2023-02-15T07:13:47.056Z,1.12
2023-02-15T07:16:13.872Z,1.13
2023-02-15T07:18:40.543Z,1.18
2023-02-15T07:21:08.853Z,1.20
2023-02-15T07:23:35.943Z,1.20
2023-02-15T07:26:03.176Z,1.16
2023-02-15T07:28:29.650Z,1.15
2023-02-15T07:30:56.270Z,1.14
2023-02-15T07:33:25.276Z,1.15
2023-02-15T07:35:52.907Z,1.22
2023-02-15T07:38:19.480Z,1.24
2023-02-15T07:40:46.005Z,1.28
2023-02-15T07:43:12.930Z,1.30
2023-02-15T07:45:39.644Z,1.35
2023-02-15T07:48:06.546Z,1.38
2023-02-15T07:50:33.010Z,1.43
2023-02-15T07:52:59.350Z,1.45
2023-02-15T07:55:25.702Z,1.51
2023-02-15T07:57:52.442Z,1.52
2023-02-15T08:00:25.879Z,1.55
2023-02-15T08:03:13.346Z,1.60
2023-02-15T08:05:41.578Z,1.66
2023-02-15T08:08:08.572Z,1.74
2023-02-15T08:10:54.888Z,1.82
2023-02-15T08:13:21.191Z,1.85
2023-02-15T08:15:53.350Z,1.93
2023-02-15T08:18:19.682Z,1.96
2023-02-15T08:20:52.282Z,2.01
2023-02-15T08:23:18.602Z,2.06
2023-02-15T08:25:44.926Z,2.12
2023-02-15T08:28:11.154Z,2.16
2023-02-15T08:30:37.426Z,2.21
2023-02-15T08:33:03.905Z,2.25
2023-02-15T08:35:30.209Z,2.31
2023-02-15T08:37:56.512Z,2.36
2023-02-15T08:40:23.150Z,2.43
2023-02-15T08:42:49.587Z,2.44
2023-02-15T08:45:15.886Z,2.49
2023-02-15T08:47:42.185Z,2.55
2023-02-15T08:50:08.659Z,2.60
2023-02-15T08:52:34.932Z,2.65
2023-02-15T08:55:01.570Z,2.70
2023-02-15T08:57:28.220Z,2.78
2023-02-15T08:59:55.888Z,2.85
2023-02-15T09:02:22.336Z,2.93
2023-02-15T09:04:48.748Z,3.00
2023-02-15T09:07:15.161Z,3.10
2023-02-15T09:09:41.957Z,3.20
2023-02-15T09:12:08.277Z,3.30
2023-02-15T09:14:34.736Z,3.45
2023-02-15T09:17:01.902Z,3.55
2023-02-15T09:19:28.282Z,3.69
2023-02-15T09:21:54.735Z,3.79
2023-02-15T09:24:21.112Z,3.90
2023-02-15T09:26:48.602Z,3.94
2023-02-15T09:29:15.513Z,4.08
2023-02-15T09:31:45.179Z,4.15
2023-02-15T09:34:12.481Z,4.27
2023-02-15T09:36:40.105Z,4.39
2023-02-15T09:39:11.852Z,4.48
2023-02-15T09:41:56.339Z,4.53
2023-02-15T09:44:28.823Z,4.61
2023-02-15T09:47:13.546Z,4.65
2023-02-15T09:49:39.844Z,4.74
2023-02-15T09:52:29.657Z,4.82
2023-02-15T09:54:56.088Z,4.93
2023-02-15T09:57:34.818Z,5.02
2023-02-15T10:00:07.212Z,5.11
2023-02-15T10:02:36.880Z,5.21
2023-02-15T10:05:12.238Z,5.30
2023-02-15T10:07:49.535Z,5.35
2023-02-15T10:10:18.921Z,5.51
2023-02-15T10:12:51.131Z,5.56
2023-02-15T10:15:35.388Z,5.62
2023-02-15T10:18:10.585Z,5.78
2023-02-15T10:20:40.255Z,5.89
2023-02-15T10:23:19.989Z,5.98
2023-02-15T10:25:57.190Z,6.10
2023-02-15T10:28:27.591Z,6.24
2023-02-15T10:31:04.862Z,6.29
2023-02-15T10:33:31.331Z,6.44
2023-02-15T10:36:00.352Z,6.50
2023-02-15T10:38:39.803Z,6.65
2023-02-15T10:41:30.156Z,6.78
2023-02-15T10:44:06.033Z,6.90
2023-02-15T10:46:45.561Z,7.05
2023-02-15T10:49:27.159Z,7.18
2023-02-15T10:52:11.322Z,7.33
2023-02-15T10:54:44.628Z,7.46
2023-02-15T10:57:20.623Z,7.61
2023-02-15T11:00:00.523Z,7.79
2023-02-15T11:02:29.780Z,7.90
2023-02-15T11:05:19.004Z,8.05
2023-02-15T11:07:48.215Z,8.18
2023-02-15T11:10:16.036Z,8.30
2023-02-15T11:12:45.446Z,8.39
2023-02-15T11:15:11.684Z,8.51
2023-02-15T11:17:41.888Z,8.69
2023-02-15T11:20:16.442Z,8.77
2023-02-15T11:22:42.776Z,8.93
2023-02-15T11:25:26.770Z,9.05
2023-02-15T11:27:54.261Z,9.20
2023-02-15T11:30:22.569Z,9.33
2023-02-15T11:32:52.345Z,9.45
2023-02-15T11:35:26.278Z,9.57
2023-02-15T11:37:56.152Z,9.68
2023-02-15T11:40:26.801Z,9.78
2023-02-15T11:42:56.278Z,9.87
2023-02-15T11:45:35.650Z,10.05
2023-02-15T11:48:06.256Z,10.08
2023-02-15T11:50:33.500Z,10.24
2023-02-15T11:53:04.703Z,10.33
2023-02-15T11:55:31.448Z,10.43
2023-02-15T11:58:16.109Z,10.44
2023-02-15T12:00:44.126Z,10.51
2023-02-15T12:03:30.803Z,10.53
2023-02-15T12:06:03.310Z,10.46
2023-02-15T12:08:37.484Z,10.61
2023-02-15T12:11:08.295Z,10.66
2023-02-15T12:13:34.597Z,10.84
2023-02-15T12:16:07.495Z,10.95
2023-02-15T12:18:35.061Z,10.99
2023-02-15T12:21:04.429Z,11.13
2023-02-15T12:23:32.304Z,11.23
2023-02-15T12:25:59.383Z,11.27
2023-02-15T12:28:38.972Z,11.41
2023-02-15T12:31:22.424Z,11.48
2023-02-15T12:33:51.717Z,11.54
2023-02-15T12:36:22.525Z,11.68
2023-02-15T12:39:04.241Z,11.60
2023-02-15T12:41:30.537Z,11.79
2023-02-15T12:44:15.726Z,11.87
2023-02-15T12:46:42.194Z,11.96
2023-02-15T12:49:11.285Z,12.08
2023-02-15T12:51:51.685Z,12.02
2023-02-15T12:54:35.394Z,12.01
2023-02-15T12:57:14.078Z,12.31
2023-02-15T12:59:50.791Z,12.33
2023-02-15T13:02:25.755Z,12.51
2023-02-15T13:04:52.465Z,12.61
2023-02-15T13:07:19.031Z,12.80
2023-02-15T13:09:46.321Z,12.74
2023-02-15T13:12:19.202Z,12.68
2023-02-15T13:14:46.828Z,12.67
2023-02-15T13:17:18.118Z,12.66
2023-02-15T13:19:47.415Z,12.57
2023-02-15T13:22:19.820Z,12.60
2023-02-15T13:24:51.378Z,12.66
2023-02-15T13:27:19.926Z,12.64
2023-02-15T13:29:50.061Z,12.59
2023-02-15T13:32:25.491Z,12.67
2023-02-15T13:34:55.165Z,12.77
2023-02-15T13:37:21.460Z,12.79
2023-02-15T13:39:56.753Z,12.79
2023-02-15T13:42:31.595Z,12.75
2023-02-15T13:45:21.352Z,12.95
2023-02-15T13:47:58.365Z,12.72
2023-02-15T13:50:43.182Z,12.77
2023-02-15T13:53:28.282Z,12.87
2023-02-15T13:55:57.332Z,12.86
2023-02-15T13:58:50.818Z,12.87
2023-02-15T14:01:29.110Z,12.91
2023-02-15T14:04:02.913Z,12.81
2023-02-15T14:06:32.545Z,12.83
2023-02-15T14:09:11.509Z,12.89
2023-02-15T14:12:04.254Z,12.91
2023-02-15T14:14:49.607Z,12.95
2023-02-15T14:17:15.947Z,12.91
2023-02-15T14:19:53.787Z,12.91
2023-02-15T14:22:35.587Z,12.94
2023-02-15T14:25:20.480Z,12.92
2023-02-15T14:27:55.279Z,12.99
2023-02-15T14:30:21.677Z,12.91
2023-02-15T14:32:50.735Z,12.91
2023-02-15T14:35:22.076Z,12.77
2023-02-15T14:37:48.330Z,12.78
2023-02-15T14:40:52.706Z,12.77
2023-02-15T14:43:37.694Z,12.75
2023-02-15T14:46:16.270Z,12.70
2023-02-15T14:48:47.906Z,12.70
2023-02-15T14:51:34.508Z,12.72
2023-02-15T14:54:00.819Z,12.71
2023-02-15T14:56:27.189Z,12.65
2023-02-15T14:58:54.076Z,12.62
2023-02-15T15:01:31.549Z,12.65
2023-02-15T15:04:00.835Z,12.63
2023-02-15T15:06:29.963Z,12.59
2023-02-15T15:09:01.046Z,12.58
2023-02-15T15:11:42.925Z,12.52
2023-02-15T15:14:10.914Z,12.57
2023-02-15T15:16:37.815Z,12.54
2023-02-15T15:19:11.589Z,12.50
2023-02-15T15:21:49.967Z,12.44
2023-02-15T15:24:35.198Z,12.49
2023-02-15T15:27:20.177Z,12.49
2023-02-15T15:29:46.528Z,12.40
2023-02-15T15:32:18.067Z,12.42
2023-02-15T15:35:01.834Z,12.44
2023-02-15T15:37:42.653Z,12.45
2023-02-15T15:40:29.305Z,12.41
2023-02-15T15:43:13.723Z,12.43
2023-02-15T15:46:03.053Z,12.40
2023-02-15T15:48:31.113Z,12.37
2023-02-15T15:50:58.675Z,12.31
2023-02-15T15:53:26.280Z,12.25
2023-02-15T15:55:56.424Z,12.22
2023-02-15T15:58:23.280Z,12.18
2023-02-15T16:00:49.757Z,12.15
2023-02-15T16:03:17.179Z,12.06
2023-02-15T16:05:43.520Z,12.06
2023-02-15T16:08:09.847Z,12.02
2023-02-15T16:10:36.851Z,11.91
2023-02-15T16:13:03.302Z,11.87
2023-02-15T16:15:36.518Z,11.81
2023-02-15T16:18:03.468Z,11.74
2023-02-15T16:20:31.944Z,11.70
2023-02-15T16:23:22.557Z,11.60
2023-02-15T16:25:58.621Z,11.48
2023-02-15T16:28:25.094Z,11.39
2023-02-15T16:31:12.840Z,11.31
2023-02-15T16:33:40.511Z,11.24
2023-02-15T16:36:10.746Z,11.17
2023-02-15T16:38:43.291Z,11.08
2023-02-15T16:41:14.763Z,11.05
2023-02-15T16:43:43.277Z,10.98
2023-02-15T16:46:14.674Z,10.96
2023-02-15T16:48:42.829Z,10.96
2023-02-15T16:51:10.043Z,10.94
2023-02-15T16:53:37.741Z,10.90
2023-02-15T16:56:05.486Z,10.88
2023-02-15T16:58:37.364Z,10.85
2023-02-15T17:01:04.467Z,10.81
2023-02-15T17:03:31.205Z,10.79
2023-02-15T17:05:59.573Z,10.75
2023-02-15T17:08:25.833Z,10.74
2023-02-15T17:11:11.954Z,10.68
2023-02-15T17:13:41.677Z,10.62
2023-02-15T17:16:21.226Z,10.62
2023-02-15T17:18:51.186Z,10.62
2023-02-15T17:21:19.036Z,10.55
2023-02-15T17:23:47.651Z,10.56
2023-02-15T17:26:20.204Z,10.50
2023-02-15T17:28:48.854Z,10.48
2023-02-15T17:31:17.089Z,10.48
2023-02-15T17:33:44.095Z,10.41
2023-02-15T17:36:17.093Z,10.35
2023-02-15T17:38:58.622Z,10.35
2023-02-15T17:41:26.594Z,10.23
2023-02-15T17:43:52.900Z,10.23
2023-02-15T17:46:22.688Z,10.22
2023-02-15T17:48:51.446Z,10.21
2023-02-15T17:51:18.655Z,10.16
2023-02-15T17:54:03.584Z,10.17
2023-02-15T17:56:30.589Z,10.08
2023-02-15T17:58:57.342Z,10.06
2023-02-15T18:01:42.920Z,10.01
2023-02-15T18:04:29.894Z,9.97
2023-02-15T18:07:15.810Z,9.93
2023-02-15T18:10:01.028Z,9.88
2023-02-15T18:12:28.565Z,9.80
2023-02-15T18:14:56.388Z,9.72
2023-02-15T18:17:27.509Z,9.61
2023-02-15T18:19:56.871Z,9.54
2023-02-15T18:22:25.608Z,9.44
2023-02-15T18:24:52.634Z,9.37
2023-02-15T18:27:19.128Z,9.27
2023-02-15T18:29:48.707Z,9.20
2023-02-15T18:32:21.993Z,9.13
2023-02-15T18:34:49.287Z,9.06
2023-02-15T18:37:17.336Z,8.96
2023-02-15T18:39:46.925Z,8.89
2023-02-15T18:42:31.469Z,8.82
2023-02-15T18:44:58.938Z,8.80
2023-02-15T18:47:25.632Z,8.78
2023-02-15T18:49:52.344Z,8.71
2023-02-15T18:52:20.361Z,8.64
2023-02-15T18:54:47.742Z,8.52
2023-02-15T18:57:15.056Z,8.42
2023-02-15T18:59:41.540Z,8.36
2023-02-15T19:02:14.884Z,8.31
2023-02-15T19:04:41.878Z,8.25
2023-02-15T19:07:17.566Z,8.20
2023-02-15T19:09:46.422Z,8.17
2023-02-15T19:12:13.250Z,8.11
2023-02-15T19:14:39.579Z,8.03
2023-02-15T19:17:12.706Z,7.97
2023-02-15T19:19:38.936Z,7.90
2023-02-15T19:22:05.505Z,7.86
2023-02-15T19:24:36.805Z,7.83
2023-02-15T19:27:03.214Z,7.79
2023-02-15T19:29:30.425Z,7.79
2023-02-15T19:31:57.992Z,7.75
2023-02-15T19:34:24.650Z,7.71
2023-02-15T19:36:52.524Z,7.65
2023-02-15T19:39:27.734Z,7.58
2023-02-15T19:41:54.095Z,7.58
2023-02-15T19:44:20.711Z,7.52
2023-02-15T19:46:47.110Z,7.50
2023-02-15T19:49:13.498Z,7.47
2023-02-15T19:51:40.067Z,7.45
2023-02-15T19:54:17.681Z,7.44
2023-02-15T19:56:44.072Z,7.41
2023-02-15T19:59:21.983Z,7.45
2023-02-15T20:01:48.311Z,7.48
2023-02-15T20:04:14.724Z,7.51
2023-02-15T20:06:41.327Z,7.53
2023-02-15T20:09:09.901Z,7.55
2023-02-15T20:11:36.403Z,7.60
2023-02-15T20:14:02.869Z,7.53
2023-02-15T20:16:29.696Z,7.49
2023-02-15T20:18:56.076Z,7.43
2023-02-15T20:21:22.596Z,7.34
2023-02-15T20:23:48.845Z,7.27
2023-02-15T20:26:18.132Z,7.24
2023-02-15T20:28:45.938Z,7.22
2023-02-15T20:31:16.451Z,7.21
2023-02-15T20:33:42.762Z,7.18
2023-02-15T20:36:16.326Z,7.18
2023-02-15T20:38:44.867Z,7.14
2023-02-15T20:41:32.288Z,7.08
2023-02-15T20:43:58.758Z,7.04
2023-02-15T20:46:25.201Z,7.01
2023-02-15T20:48:51.589Z,6.99
2023-02-15T20:51:18.965Z,6.98
2023-02-15T20:53:46.075Z,6.97
2023-02-15T20:56:19.158Z,6.93
2023-02-15T20:58:45.838Z,6.97
2023-02-15T21:01:12.910Z,6.91
2023-02-15T21:03:39.564Z,6.86
2023-02-15T21:06:06.669Z,6.84
2023-02-15T21:08:33.341Z,6.86
2023-02-15T21:11:01.770Z,6.88
2023-02-15T21:13:32.912Z,6.93
2023-02-15T21:15:59.904Z,7.05
2023-02-15T21:18:31.012Z,7.18
2023-02-15T21:20:58.878Z,7.30
2023-02-15T21:23:30.349Z,7.40
2023-02-15T21:25:57.160Z,7.52
2023-02-15T21:28:24.899Z,7.63
2023-02-15T21:30:52.182Z,7.69
2023-02-15T21:33:18.573Z,7.79
2023-02-15T21:35:47.244Z,7.86
2023-02-15T21:38:15.590Z,7.90
2023-02-15T21:40:42.475Z,7.96
2023-02-15T21:43:40.668Z,8.00
2023-02-15T21:46:35.639Z,8.05
2023-02-15T21:49:02.320Z,8.09
2023-02-15T21:51:48.088Z,8.13
2023-02-15T21:54:18.686Z,8.15
2023-02-15T21:56:45.572Z,8.16
2023-02-15T21:59:12.630Z,8.14
2023-02-15T22:01:40.068Z,8.15
2023-02-15T22:04:11.692Z,8.11
2023-02-15T22:06:38.324Z,8.10
2023-02-15T22:09:15.387Z,8.10
2023-02-15T22:11:41.815Z,8.10
2023-02-15T22:14:25.597Z,8.10
2023-02-15T22:16:51.855Z,8.06
2023-02-15T22:19:18.266Z,8.05
2023-02-15T22:21:44.524Z,8.01
2023-02-15T22:24:10.788Z,7.99
2023-02-15T22:26:37.074Z,7.94
2023-02-15T22:29:03.396Z,7.91
2023-02-15T22:31:29.789Z,7.91
2023-02-15T22:33:56.117Z,7.85
2023-02-15T22:36:26.876Z,7.83
2023-02-15T22:38:53.534Z,7.82
2023-02-15T22:41:20.230Z,7.79
2023-02-15T22:43:47.623Z,7.73
2023-02-15T22:46:16.211Z,7.70
2023-02-15T22:48:43.324Z,7.65
2023-02-15T22:51:12.570Z,7.61
2023-02-15T22:53:38.813Z,7.60
2023-02-15T22:56:06.978Z,7.53
2023-02-15T22:58:33.857Z,7.53
2023-02-15T23:01:01.469Z,7.51
2023-02-15T23:03:31.169Z,7.50
2023-02-15T23:05:57.545Z,7.52
2023-02-15T23:08:23.787Z,7.48
2023-02-15T23:10:56.649Z,7.42
2023-02-15T23:13:26.090Z,7.41
2023-02-15T23:15:57.376Z,7.37
2023-02-15T23:18:31.916Z,7.39
2023-02-15T23:21:02.488Z,7.32
2023-02-15T23:23:36.321Z,7.29
2023-02-15T23:26:04.511Z,7.33
2023-02-15T23:28:33.892Z,7.26
2023-02-15T23:31:00.314Z,7.25
2023-02-15T23:33:28.292Z,7.26
2023-02-15T23:35:54.536Z,7.23
2023-02-15T23:38:25.967Z,7.25
2023-02-15T23:41:12.566Z,7.24
2023-02-15T23:43:40.023Z,7.24
2023-02-15T23:46:07.031Z,7.27
2023-02-15T23:48:35.469Z,7.22
2023-02-15T23:51:02.489Z,7.18
2023-02-15T23:53:29.498Z,7.20
2023-02-15T23:55:56.050Z,7.17
2023-02-15T23:58:24.786Z,7.19
